sensor_id;sensor_type;location;lat;lon;timestamp;pressure;altitude;pressure_sealevel;temperature;humidity
37368;BME280;23240;43.210;27.910;2022-11-20T00:00:43;100776.97;;;16.39;100.00
37368;BME280;23240;43.210;27.910;2022-11-20T00:03:09;100768.88;;;16.39;100.00
37368;BME280;23240;43.210;27.910;2022-11-20T00:05:34;100769.19;;;16.36;100.00
37368;BME280;23240;43.210;27.910;2022-11-20T00:08:00;100770.88;;;16.37;100.00
37368;BME280;23240;43.210;27.910;2022-11-20T00:10:25;100771.72;;;16.38;100.00
37368;BME280;23240;43.210;27.910;2022-11-20T00:12:51;100768.16;;;16.37;100.00
37368;BME280;23240;43.210;27.910;2022-11-20T00:15:17;100756.50;;;16.37;100.00
37368;BME280;23240;43.210;27.910;2022-11-20T00:17:42;100763.59;;;16.30;100.00
37368;BME280;23240;43.210;27.910;2022-11-20T00:20:08;100768.22;;;16.19;100.00
37368;BME280;23240;43.210;27.910;2022-11-20T00:22:34;100765.03;;;16.16;100.00
37368;BME280;23240;43.210;27.910;2022-11-20T00:24:59;100755.72;;;16.10;100.00
37368;BME280;23240;43.210;27.910;2022-11-20T00:27:25;100766.34;;;16.12;100.00
37368;BME280;23240;43.210;27.910;2022-11-20T00:29:50;100768.34;;;16.10;100.00
37368;BME280;23240;43.210;27.910;2022-11-20T00:32:16;100764.13;;;16.07;100.00
37368;BME280;23240;43.210;27.910;2022-11-20T00:34:41;100761.75;;;16.04;100.00
37368;BME280;23240;43.210;27.910;2022-11-20T00:37:06;100763.59;;;16.04;100.00
37368;BME280;23240;43.210;27.910;2022-11-20T00:39:32;100769.00;;;16.04;100.00
37368;BME280;23240;43.210;27.910;2022-11-20T00:41:57;100760.59;;;16.07;100.00
37368;BME280;23240;43.210;27.910;2022-11-20T00:44:23;100773.75;;;16.10;100.00
37368;BME280;23240;43.210;27.910;2022-11-20T00:46:48;100779.50;;;16.07;100.00
37368;BME280;23240;43.210;27.910;2022-11-20T00:49:14;100775.13;;;16.06;100.00
37368;BME280;23240;43.210;27.910;2022-11-20T00:51:39;100777.47;;;16.09;100.00
37368;BME280;23240;43.210;27.910;2022-11-20T00:54:05;100773.75;;;16.10;100.00
37368;BME280;23240;43.210;27.910;2022-11-20T00:56:30;100783.41;;;16.12;100.00
37368;BME280;23240;43.210;27.910;2022-11-20T00:58:59;100773.63;;;16.11;100.00
37368;BME280;23240;43.210;27.910;2022-11-20T01:01:25;100777.22;;;16.20;100.00
37368;BME280;23240;43.210;27.910;2022-11-20T01:03:52;100783.00;;;16.25;100.00
37368;BME280;23240;43.210;27.910;2022-11-20T01:06:19;100767.97;;;16.31;100.00
37368;BME280;23240;43.210;27.910;2022-11-20T01:08:46;100763.59;;;16.30;100.00
37368;BME280;23240;43.210;27.910;2022-11-20T01:11:14;100767.63;;;16.26;100.00
37368;BME280;23240;43.210;27.910;2022-11-20T01:13:40;100761.72;;;16.30;100.00
37368;BME280;23240;43.210;27.910;2022-11-20T01:16:10;100760.19;;;16.28;100.00
37368;BME280;23240;43.210;27.910;2022-11-20T01:18:37;100767.81;;;16.32;100.00
37368;BME280;23240;43.210;27.910;2022-11-20T01:21:09;100764.63;;;16.37;100.00
37368;BME280;23240;43.210;27.910;2022-11-20T01:23:37;100769.59;;;16.50;100.00
37368;BME280;23240;43.210;27.910;2022-11-20T01:26:05;100775.69;;;16.60;100.00
37368;BME280;23240;43.210;27.910;2022-11-20T01:28:31;100766.09;;;16.65;100.00
37368;BME280;23240;43.210;27.910;2022-11-20T01:30:57;100764.75;;;16.69;100.00
37368;BME280;23240;43.210;27.910;2022-11-20T01:33:23;100756.47;;;16.71;100.00
37368;BME280;23240;43.210;27.910;2022-11-20T01:35:48;100763.91;;;16.69;100.00
37368;BME280;23240;43.210;27.910;2022-11-20T01:38:17;100757.47;;;16.70;100.00
37368;BME280;23240;43.210;27.910;2022-11-20T01:40:45;100762.59;;;16.73;100.00
37368;BME280;23240;43.210;27.910;2022-11-20T01:43:17;100753.63;;;16.81;100.00
37368;BME280;23240;43.210;27.910;2022-11-20T01:46:17;100742.66;;;16.82;100.00
37368;BME280;23240;43.210;27.910;2022-11-20T01:48:49;100749.94;;;16.90;100.00
37368;BME280;23240;43.210;27.910;2022-11-20T01:54:09;100739.97;;;16.90;100.00
37368;BME280;23240;43.210;27.910;2022-11-20T01:56:38;100752.81;;;16.88;100.00
37368;BME280;23240;43.210;27.910;2022-11-20T01:59:07;100746.03;;;16.84;100.00
37368;BME280;23240;43.210;27.910;2022-11-20T02:01:34;100737.22;;;16.82;100.00
37368;BME280;23240;43.210;27.910;2022-11-20T02:04:00;100739.44;;;16.79;100.00
37368;BME280;23240;43.210;27.910;2022-11-20T02:06:35;100744.69;;;16.80;100.00
37368;BME280;23240;43.210;27.910;2022-11-20T02:09:01;100734.22;;;16.85;100.00
37368;BME280;23240;43.210;27.910;2022-11-20T02:11:30;100748.47;;;17.12;100.00
37368;BME280;23240;43.210;27.910;2022-11-20T02:13:55;100731.88;;;17.15;100.00
37368;BME280;23240;43.210;27.910;2022-11-20T02:16:26;100728.16;;;17.24;100.00
37368;BME280;23240;43.210;27.910;2022-11-20T02:18:58;100735.97;;;17.27;100.00
37368;BME280;23240;43.210;27.910;2022-11-20T02:21:49;100731.38;;;17.28;100.00
37368;BME280;23240;43.210;27.910;2022-11-20T02:24:19;100732.06;;;17.21;100.00
37368;BME280;23240;43.210;27.910;2022-11-20T02:26:51;100726.31;;;17.16;100.00
37368;BME280;23240;43.210;27.910;2022-11-20T02:29:23;100728.81;;;17.10;100.00
37368;BME280;23240;43.210;27.910;2022-11-20T02:31:51;100726.47;;;17.07;100.00
37368;BME280;23240;43.210;27.910;2022-11-20T02:34:17;100721.56;;;17.02;100.00
37368;BME280;23240;43.210;27.910;2022-11-20T02:36:43;100729.50;;;17.04;100.00
37368;BME280;23240;43.210;27.910;2022-11-20T02:39:11;100730.03;;;17.07;100.00
37368;BME280;23240;43.210;27.910;2022-11-20T02:41:38;100731.22;;;17.13;100.00
37368;BME280;23240;43.210;27.910;2022-11-20T02:44:04;100725.13;;;17.19;100.00
37368;BME280;23240;43.210;27.910;2022-11-20T02:46:31;100725.97;;;17.28;100.00
37368;BME280;23240;43.210;27.910;2022-11-20T02:48:57;100725.13;;;17.27;100.00
37368;BME280;23240;43.210;27.910;2022-11-20T02:51:23;100700.41;;;17.38;100.00
37368;BME280;23240;43.210;27.910;2022-11-20T02:53:48;100700.09;;;17.41;100.00
37368;BME280;23240;43.210;27.910;2022-11-20T02:56:14;100697.38;;;17.41;100.00
37368;BME280;23240;43.210;27.910;2022-11-20T02:58:40;100700.09;;;17.41;100.00
37368;BME280;23240;43.210;27.910;2022-11-20T03:01:06;100710.22;;;17.39;100.00
37368;BME280;23240;43.210;27.910;2022-11-20T03:03:31;100716.13;;;17.35;100.00
37368;BME280;23240;43.210;27.910;2022-11-20T03:05:58;100721.06;;;17.31;100.00
37368;BME280;23240;43.210;27.910;2022-11-20T03:08:24;100722.06;;;17.30;100.00
37368;BME280;23240;43.210;27.910;2022-11-20T03:10:49;100713.09;;;17.30;100.00
37368;BME280;23240;43.210;27.910;2022-11-20T03:13:15;100716.31;;;17.33;100.00
37368;BME280;23240;43.210;27.910;2022-11-20T03:15:40;100715.31;;;17.34;100.00
37368;BME280;23240;43.210;27.910;2022-11-20T03:18:06;100699.56;;;17.38;100.00
37368;BME280;23240;43.210;27.910;2022-11-20T03:20:33;100697.00;;;17.44;100.00
37368;BME280;23240;43.210;27.910;2022-11-20T03:22:59;100694.16;;;17.46;100.00
37368;BME280;23240;43.210;27.910;2022-11-20T03:25:25;100697.00;;;17.53;100.00
37368;BME280;23240;43.210;27.910;2022-11-20T03:27:51;100685.16;;;17.54;100.00
37368;BME280;23240;43.210;27.910;2022-11-20T03:30:16;100686.00;;;17.54;100.00
37368;BME280;23240;43.210;27.910;2022-11-20T03:32:42;100685.00;;;17.55;100.00
37368;BME280;23240;43.210;27.910;2022-11-20T03:35:08;100673.16;;;17.56;100.00
37368;BME280;23240;43.210;27.910;2022-11-20T03:37:34;100672.31;;;17.56;100.00
37368;BME280;23240;43.210;27.910;2022-11-20T03:39:59;100668.38;;;17.58;100.00
37368;BME280;23240;43.210;27.910;2022-11-20T03:42:25;100682.13;;;17.57;100.00
37368;BME280;23240;43.210;27.910;2022-11-20T03:45:09;100670.78;;;17.53;100.00
37368;BME280;23240;43.210;27.910;2022-11-20T03:47:34;100686.69;;;17.56;100.00
37368;BME280;23240;43.210;27.910;2022-11-20T03:50:00;100679.41;;;17.48;100.00
37368;BME280;23240;43.210;27.910;2022-11-20T03:52:25;100681.47;;;17.46;100.00
37368;BME280;23240;43.210;27.910;2022-11-20T03:54:51;100677.22;;;17.52;100.00
37368;BME280;23240;43.210;27.910;2022-11-20T03:57:16;100674.50;;;17.52;100.00
37368;BME280;23240;43.210;27.910;2022-11-20T03:59:42;100671.63;;;17.54;100.00
37368;BME280;23240;43.210;27.910;2022-11-20T04:02:07;100669.59;;;17.56;100.00
37368;BME280;23240;43.210;27.910;2022-11-20T04:04:33;100667.53;;;17.58;100.00
37368;BME280;23240;43.210;27.910;2022-11-20T04:06:58;100658.25;;;17.60;100.00
37368;BME280;23240;43.210;27.910;2022-11-20T04:09:24;100649.63;;;17.57;100.00
37368;BME280;23240;43.210;27.910;2022-11-20T04:11:49;100653.81;;;17.59;100.00
37368;BME280;23240;43.210;27.910;2022-11-20T04:14:16;100658.41;;;17.59;100.00
37368;BME280;23240;43.210;27.910;2022-11-20T04:16:42;100656.38;;;17.61;100.00
37368;BME280;23240;43.210;27.910;2022-11-20T04:19:13;100648.91;;;17.63;100.00
37368;BME280;23240;43.210;27.910;2022-11-20T04:21:39;100646.38;;;17.61;100.00
37368;BME280;23240;43.210;27.910;2022-11-20T04:24:05;100656.38;;;17.61;100.00
37368;BME280;23240;43.210;27.910;2022-11-20T04:26:30;100646.38;;;17.61;100.00
37368;BME280;23240;43.210;27.910;2022-11-20T04:28:57;100648.06;;;17.62;100.00
37368;BME280;23240;43.210;27.910;2022-11-20T04:31:24;100643.16;;;17.58;100.00
37368;BME280;23240;43.210;27.910;2022-11-20T04:33:50;100646.41;;;17.53;100.00
37368;BME280;23240;43.210;27.910;2022-11-20T04:36:24;100659.09;;;17.53;100.00
37368;BME280;23240;43.210;27.910;2022-11-20T04:38:57;100651.16;;;17.51;100.00
37368;BME280;23240;43.210;27.910;2022-11-20T04:41:31;100656.22;;;17.54;100.00
37368;BME280;23240;43.210;27.910;2022-11-20T04:43:58;100640.66;;;17.56;100.00
37368;BME280;23240;43.210;27.910;2022-11-20T04:46:30;100642.47;;;17.64;100.00
37368;BME280;23240;43.210;27.910;2022-11-20T04:48:56;100639.44;;;17.67;100.00
37368;BME280;23240;43.210;27.910;2022-11-20T04:51:22;100633.34;;;17.65;100.00
37368;BME280;23240;43.210;27.910;2022-11-20T04:53:47;100639.44;;;17.67;100.00
37368;BME280;23240;43.210;27.910;2022-11-20T04:56:13;100640.94;;;17.69;100.00
37368;BME280;23240;43.210;27.910;2022-11-20T04:58:39;100641.97;;;17.77;100.00
37368;BME280;23240;43.210;27.910;2022-11-20T05:03:32;100651.28;;;17.74;100.00
37368;BME280;23240;43.210;27.910;2022-11-20T05:06:02;100650.59;;;17.72;100.00
37368;BME280;23240;43.210;27.910;2022-11-20T05:08:28;100646.88;;;17.73;100.00
37368;BME280;23240;43.210;27.910;2022-11-20T05:10:58;100636.88;;;17.73;100.00
37368;BME280;23240;43.210;27.910;2022-11-20T05:13:24;100630.47;;;17.75;100.00
37368;BME280;23240;43.210;27.910;2022-11-20T05:15:49;100633.34;;;17.73;100.00
37368;BME280;23240;43.210;27.910;2022-11-20T05:18:15;100631.13;;;17.68;100.00
37368;BME280;23240;43.210;27.910;2022-11-20T05:20:40;100636.19;;;17.71;100.00
37368;BME280;23240;43.210;27.910;2022-11-20T05:23:06;100624.03;;;17.76;100.00
37368;BME280;23240;43.210;27.910;2022-11-20T05:25:31;100624.34;;;17.81;100.00
37368;BME280;23240;43.210;27.910;2022-11-20T05:27:56;100637.38;;;17.77;100.00
37368;BME280;23240;43.210;27.910;2022-11-20T05:30:22;100637.72;;;17.82;100.00
37368;BME280;23240;43.210;27.910;2022-11-20T05:32:47;100636.03;;;17.81;100.00
37368;BME280;23240;43.210;27.910;2022-11-20T05:35:13;100641.75;;;17.86;100.00
37368;BME280;23240;43.210;27.910;2022-11-20T05:37:38;100644.34;;;17.80;100.00
37368;BME280;23240;43.210;27.910;2022-11-20T05:40:04;100658.03;;;17.78;100.00
37368;BME280;23240;43.210;27.910;2022-11-20T05:42:30;100655.66;;;17.83;100.00
37368;BME280;23240;43.210;27.910;2022-11-20T05:45:01;100658.69;;;17.88;100.00
37368;BME280;23240;43.210;27.910;2022-11-20T05:47:28;100663.44;;;17.94;100.00
37368;BME280;23240;43.210;27.910;2022-11-20T05:49:56;100664.06;;;18.05;100.00
37368;BME280;23240;43.210;27.910;2022-11-20T05:52:21;100673.38;;;18.02;100.00
37368;BME280;23240;43.210;27.910;2022-11-20T05:54:47;100668.25;;;18.07;100.00
37368;BME280;23240;43.210;27.910;2022-11-20T05:57:12;100669.59;;;18.11;100.00
37368;BME280;23240;43.210;27.910;2022-11-20T05:59:38;100667.75;;;18.12;100.00
37368;BME280;23240;43.210;27.910;2022-11-20T06:02:03;100656.59;;;18.07;100.00
37368;BME280;23240;43.210;27.910;2022-11-20T06:04:29;100666.72;;;18.13;100.00
37368;BME280;23240;43.210;27.910;2022-11-20T06:06:54;100659.91;;;18.25;100.00
37368;BME280;23240;43.210;27.910;2022-11-20T06:09:20;100658.34;;;18.31;100.00
37368;BME280;23240;43.210;27.910;2022-11-20T06:11:45;100668.00;;;18.33;100.00
37368;BME280;23240;43.210;27.910;2022-11-20T06:14:11;100665.59;;;18.38;100.00
37368;BME280;23240;43.210;27.910;2022-11-20T06:16:36;100669.69;;;18.34;100.00
37368;BME280;23240;43.210;27.910;2022-11-20T06:19:02;100662.19;;;18.36;100.00
37368;BME280;23240;43.210;27.910;2022-11-20T06:21:27;100653.22;;;18.36;100.00
37368;BME280;23240;43.210;27.910;2022-11-20T06:23:53;100665.94;;;18.35;100.00
37368;BME280;23240;43.210;27.910;2022-11-20T06:26:21;100664.06;;;18.36;100.00
37368;BME280;23240;43.210;27.910;2022-11-20T06:28:47;100668.66;;;18.35;100.00
37368;BME280;23240;43.210;27.910;2022-11-20T06:31:15;100668.84;;;18.34;100.00
37368;BME280;23240;43.210;27.910;2022-11-20T06:33:41;100668.47;;;18.37;100.00
37368;BME280;23240;43.210;27.910;2022-11-20T06:36:09;100665.91;;;18.43;100.00
37368;BME280;23240;43.210;27.910;2022-11-20T06:38:35;100665.38;;;18.48;100.00
37368;BME280;23240;43.210;27.910;2022-11-20T06:41:01;100656.47;;;18.62;100.00
37368;BME280;23240;43.210;27.910;2022-11-20T06:43:28;100651.44;;;18.82;100.00
37368;BME280;23240;43.210;27.910;2022-11-20T06:45:55;100656.44;;;18.93;100.00
37368;BME280;23240;43.210;27.910;2022-11-20T06:48:22;100662.84;;;19.00;100.00
37368;BME280;23240;43.210;27.910;2022-11-20T06:50:48;100658.66;;;18.90;100.00
37368;BME280;23240;43.210;27.910;2022-11-20T06:53:14;100664.38;;;18.95;100.00
37368;BME280;23240;43.210;27.910;2022-11-20T06:55:44;100668.25;;;19.00;100.00
37368;BME280;23240;43.210;27.910;2022-11-20T06:58:10;100665.31;;;19.10;100.00
37368;BME280;23240;43.210;27.910;2022-11-20T07:00:36;100651.47;;;19.20;100.00
37368;BME280;23240;43.210;27.910;2022-11-20T07:03:06;100656.16;;;19.26;100.00
37368;BME280;23240;43.210;27.910;2022-11-20T07:05:32;100667.50;;;19.30;100.00
37368;BME280;23240;43.210;27.910;2022-11-20T07:07:58;100660.94;;;19.39;100.00
37368;BME280;23240;43.210;27.910;2022-11-20T07:10:24;100661.00;;;19.54;100.00
37368;BME280;23240;43.210;27.910;2022-11-20T07:12:51;100666.03;;;19.57;100.00
37368;BME280;23240;43.210;27.910;2022-11-20T07:15:17;100654.41;;;19.48;100.00
37368;BME280;23240;43.210;27.910;2022-11-20T07:17:43;100655.16;;;19.57;100.00
37368;BME280;23240;43.210;27.910;2022-11-20T07:20:09;100653.50;;;19.56;100.00
37368;BME280;23240;43.210;27.910;2022-11-20T07:22:35;100652.84;;;19.54;100.00
37368;BME280;23240;43.210;27.910;2022-11-20T07:25:00;100648.41;;;19.52;100.00
37368;BME280;23240;43.210;27.910;2022-11-20T07:27:27;100654.69;;;19.53;100.00
37368;BME280;23240;43.210;27.910;2022-11-20T07:29:52;100651.53;;;19.49;100.00
37368;BME280;23240;43.210;27.910;2022-11-20T07:32:17;100652.34;;;19.50;100.00
37368;BME280;23240;43.210;27.910;2022-11-20T07:34:43;100652.69;;;19.32;100.00
37368;BME280;23240;43.210;27.910;2022-11-20T07:37:08;100649.84;;;19.11;100.00
37368;BME280;23240;43.210;27.910;2022-11-20T07:39:34;100659.94;;;19.02;100.00
37368;BME280;23240;43.210;27.910;2022-11-20T07:41:59;100656.88;;;19.05;100.00
37368;BME280;23240;43.210;27.910;2022-11-20T07:44:25;100649.22;;;19.23;100.00
37368;BME280;23240;43.210;27.910;2022-11-20T07:46:50;100646.44;;;19.32;100.00
37368;BME280;23240;43.210;27.910;2022-11-20T07:49:16;100645.97;;;19.43;100.00
37368;BME280;23240;43.210;27.910;2022-11-20T07:51:41;100658.56;;;19.59;100.00
37368;BME280;23240;43.210;27.910;2022-11-20T07:54:06;100638.19;;;19.77;100.00
37368;BME280;23240;43.210;27.910;2022-11-20T07:56:32;100641.25;;;19.89;100.00
37368;BME280;23240;43.210;27.910;2022-11-20T07:58:57;100645.28;;;19.93;100.00
37368;BME280;23240;43.210;27.910;2022-11-20T08:01:23;100641.72;;;20.08;100.00
37368;BME280;23240;43.210;27.910;2022-11-20T08:03:48;100644.50;;;20.14;100.00
37368;BME280;23240;43.210;27.910;2022-11-20T08:06:14;100645.59;;;20.20;100.00
37368;BME280;23240;43.210;27.910;2022-11-20T08:08:40;100660.19;;;20.12;100.00
37368;BME280;23240;43.210;27.910;2022-11-20T08:11:06;100654.53;;;20.14;100.00
37368;BME280;23240;43.210;27.910;2022-11-20T08:13:49;100638.41;;;20.12;100.00
37368;BME280;23240;43.210;27.910;2022-11-20T08:16:33;100652.34;;;20.24;100.00
37368;BME280;23240;43.210;27.910;2022-11-20T08:18:59;100651.78;;;20.28;100.00
37368;BME280;23240;43.210;27.910;2022-11-20T08:21:24;100653.31;;;20.31;100.00
37368;BME280;23240;43.210;27.910;2022-11-20T08:23:50;100650.44;;;20.39;100.00
37368;BME280;23240;43.210;27.910;2022-11-20T08:26:15;100652.88;;;20.49;100.00
37368;BME280;23240;43.210;27.910;2022-11-20T08:28:41;100639.50;;;20.47;100.00
37368;BME280;23240;43.210;27.910;2022-11-20T08:31:06;100643.38;;;20.45;100.00
37368;BME280;23240;43.210;27.910;2022-11-20T08:33:32;100652.25;;;20.47;100.00
37368;BME280;23240;43.210;27.910;2022-11-20T08:35:59;100650.00;;;20.50;100.00
37368;BME280;23240;43.210;27.910;2022-11-20T08:38:25;100645.19;;;20.52;100.00
37368;BME280;23240;43.210;27.910;2022-11-20T08:40:51;100633.47;;;20.52;100.00
37368;BME280;23240;43.210;27.910;2022-11-20T08:43:34;100635.81;;;20.55;100.00
37368;BME280;23240;43.210;27.910;2022-11-20T08:46:00;100628.19;;;20.65;100.00
37368;BME280;23240;43.210;27.910;2022-11-20T08:48:26;100618.50;;;20.63;100.00
37368;BME280;23240;43.210;27.910;2022-11-20T08:50:51;100627.06;;;20.81;100.00
37368;BME280;23240;43.210;27.910;2022-11-20T08:53:16;100624.41;;;20.88;100.00
37368;BME280;23240;43.210;27.910;2022-11-20T08:55:42;100628.38;;;20.85;100.00
37368;BME280;23240;43.210;27.910;2022-11-20T08:58:07;100635.75;;;20.91;100.00
37368;BME280;23240;43.210;27.910;2022-11-20T09:00:33;100633.56;;;20.80;100.00
37368;BME280;23240;43.210;27.910;2022-11-20T09:02:59;100634.19;;;20.82;100.00
37368;BME280;23240;43.210;27.910;2022-11-20T09:05:26;100622.25;;;20.83;100.00
37368;BME280;23240;43.210;27.910;2022-11-20T09:07:52;100628.38;;;20.85;100.00
37368;BME280;23240;43.210;27.910;2022-11-20T09:10:17;100620.31;;;20.77;100.00
37368;BME280;23240;43.210;27.910;2022-11-20T09:12:42;100618.13;;;20.66;100.00
37368;BME280;23240;43.210;27.910;2022-11-20T09:15:08;100612.69;;;20.66;100.00
37368;BME280;23240;43.210;27.910;2022-11-20T09:17:34;100616.31;;;20.73;100.00
37368;BME280;23240;43.210;27.910;2022-11-20T09:19:59;100614.38;;;20.67;100.00
37368;BME280;23240;43.210;27.910;2022-11-20T09:22:25;100608.97;;;20.73;100.00
37368;BME280;23240;43.210;27.910;2022-11-20T09:24:50;100610.72;;;20.81;100.00
37368;BME280;23240;43.210;27.910;2022-11-20T09:27:16;100613.47;;;20.81;100.00
37368;BME280;23240;43.210;27.910;2022-11-20T09:29:46;100614.00;;;20.70;100.00
37368;BME280;23240;43.210;27.910;2022-11-20T09:32:12;100609.06;;;20.80;100.00
37368;BME280;23240;43.210;27.910;2022-11-20T09:34:37;100606.38;;;20.87;100.00
37368;BME280;23240;43.210;27.910;2022-11-20T09:37:03;100593.59;;;20.87;100.00
37368;BME280;23240;43.210;27.910;2022-11-20T09:39:28;100602.31;;;20.76;100.00
37368;BME280;23240;43.210;27.910;2022-11-20T09:42:13;100601.34;;;20.62;100.00
37368;BME280;23240;43.210;27.910;2022-11-20T09:44:50;100595.44;;;20.59;100.00
37368;BME280;23240;43.210;27.910;2022-11-20T09:50:03;100591.34;;;20.69;100.00
37368;BME280;23240;43.210;27.910;2022-11-20T09:52:56;100584.72;;;20.78;100.00
37368;BME280;23240;43.210;27.910;2022-11-20T09:55:25;100576.13;;;20.75;100.00
37368;BME280;23240;43.210;27.910;2022-11-20T09:57:52;100584.69;;;20.72;100.00
37368;BME280;23240;43.210;27.910;2022-11-20T10:00:18;100566.78;;;20.63;100.00
37368;BME280;23240;43.210;27.910;2022-11-20T10:05:37;100578.47;;;20.57;100.00
37368;BME280;23240;43.210;27.910;2022-11-20T10:11:30;100568.63;;;20.56;100.00
37368;BME280;23240;43.210;27.910;2022-11-20T10:27:55;100539.13;;;20.59;100.00
37368;BME280;23240;43.210;27.910;2022-11-20T10:30:24;100532.59;;;20.53;100.00
37368;BME280;23240;43.210;27.910;2022-11-20T10:35:50;100533.88;;;20.58;100.00
37368;BME280;23240;43.210;27.910;2022-11-20T10:38:20;100530.59;;;20.62;100.00
37368;BME280;23240;43.210;27.910;2022-11-20T10:40:53;100523.00;;;20.58;100.00
37368;BME280;23240;43.210;27.910;2022-11-20T10:43:39;100529.69;;;20.55;100.00
37368;BME280;23240;43.210;27.910;2022-11-20T10:46:14;100527.81;;;20.56;100.00
37368;BME280;23240;43.210;27.910;2022-11-20T10:48:43;100526.09;;;20.54;100.00
37368;BME280;23240;43.210;27.910;2022-11-20T10:51:12;100521.53;;;20.55;100.00
37368;BME280;23240;43.210;27.910;2022-11-20T10:53:47;100525.72;;;20.58;100.00
37368;BME280;23240;43.210;27.910;2022-11-20T10:56:21;100520.06;;;20.59;100.00
37368;BME280;23240;43.210;27.910;2022-11-20T11:01:45;100522.78;;;20.59;100.00
37368;BME280;23240;43.210;27.910;2022-11-20T11:07:20;100533.06;;;20.57;100.00
37368;BME280;23240;43.210;27.910;2022-11-20T11:09:50;100527.16;;;20.53;100.00
37368;BME280;23240;43.210;27.910;2022-11-20T11:12:18;100526.97;;;20.55;100.00
37368;BME280;23240;43.210;27.910;2022-11-20T11:14:52;100516.59;;;20.65;100.00
37368;BME280;23240;43.210;27.910;2022-11-20T11:17:32;100522.28;;;20.70;100.00
37368;BME280;23240;43.210;27.910;2022-11-20T11:22:39;100519.50;;;20.64;100.00
37368;BME280;23240;43.210;27.910;2022-11-20T11:25:28;100524.31;;;20.62;100.00
37368;BME280;23240;43.210;27.910;2022-11-20T11:27:57;100525.09;;;20.56;100.00
37368;BME280;23240;43.210;27.910;2022-11-20T11:30:24;100526.50;;;20.51;100.00
37368;BME280;23240;43.210;27.910;2022-11-20T11:32:50;100534.56;;;20.45;100.00
37368;BME280;23240;43.210;27.910;2022-11-20T11:35:26;100538.75;;;20.41;100.00
37368;BME280;23240;43.210;27.910;2022-11-20T11:37:54;100534.72;;;20.37;100.00
37368;BME280;23240;43.210;27.910;2022-11-20T11:40:28;100536.59;;;20.36;100.00
37368;BME280;23240;43.210;27.910;2022-11-20T11:43:02;100537.88;;;20.40;100.00
37368;BME280;23240;43.210;27.910;2022-11-20T11:45:29;100534.06;;;20.35;100.00
37368;BME280;23240;43.210;27.910;2022-11-20T11:48:00;100545.78;;;20.35;100.00
37368;BME280;23240;43.210;27.910;2022-11-20T11:50:29;100547.84;;;20.33;100.00
37368;BME280;23240;43.210;27.910;2022-11-20T11:53:09;100553.66;;;20.30;100.00
37368;BME280;23240;43.210;27.910;2022-11-20T12:00:47;100556.19;;;20.10;100.00
37368;BME280;23240;43.210;27.910;2022-11-20T12:03:38;100559.72;;;20.11;100.00
37368;BME280;23240;43.210;27.910;2022-11-20T12:06:13;100571.28;;;20.13;100.00
37368;BME280;23240;43.210;27.910;2022-11-20T12:08:53;100563.97;;;20.13;100.00
37368;BME280;23240;43.210;27.910;2022-11-20T12:11:36;100556.66;;;20.14;100.00
37368;BME280;23240;43.210;27.910;2022-11-20T12:16:36;100551.47;;;20.19;100.00
37368;BME280;23240;43.210;27.910;2022-11-20T12:19:07;100545.13;;;20.12;100.00
37368;BME280;23240;43.210;27.910;2022-11-20T12:25:07;100540.53;;;20.12;100.00
37368;BME280;23240;43.210;27.910;2022-11-20T12:30:14;100534.63;;;20.09;100.00
37368;BME280;23240;43.210;27.910;2022-11-20T12:41:19;100521.28;;;20.14;100.00
37368;BME280;23240;43.210;27.910;2022-11-20T12:55:21;100532.28;;;20.06;100.00
37368;BME280;23240;43.210;27.910;2022-11-20T12:57:57;100537.06;;;20.03;100.00
37368;BME280;23240;43.210;27.910;2022-11-20T13:00:24;100540.06;;;20.09;100.00
37368;BME280;23240;43.210;27.910;2022-11-20T13:05:59;100547.13;;;20.03;100.00
37368;BME280;23240;43.210;27.910;2022-11-20T13:11:17;100538.38;;;20.08;100.00
37368;BME280;23240;43.210;27.910;2022-11-20T13:19:04;100544.47;;;20.10;100.00
37368;BME280;23240;43.210;27.910;2022-11-20T13:21:40;100542.22;;;20.13;100.00
37368;BME280;23240;43.210;27.910;2022-11-20T13:24:26;100538.19;;;20.09;100.00
37368;BME280;23240;43.210;27.910;2022-11-20T13:29:31;100540.06;;;20.09;100.00
37368;BME280;23240;43.210;27.910;2022-11-20T13:32:04;100526.47;;;20.09;100.00
37368;BME280;23240;43.210;27.910;2022-11-20T13:34:30;100527.81;;;19.98;100.00
37368;BME280;23240;43.210;27.910;2022-11-20T13:36:57;100534.47;;;19.95;100.00
37368;BME280;23240;43.210;27.910;2022-11-20T13:39:27;100543.03;;;19.92;100.00
37368;BME280;23240;43.210;27.910;2022-11-20T13:42:27;100536.91;;;19.90;100.00
37368;BME280;23240;43.210;27.910;2022-11-20T13:44:54;100550.31;;;19.92;100.00
37368;BME280;23240;43.210;27.910;2022-11-20T13:47:28;100558.47;;;19.92;100.00
37368;BME280;23240;43.210;27.910;2022-11-20T13:49:58;100556.22;;;19.95;100.00
37368;BME280;23240;43.210;27.910;2022-11-20T13:55:32;100553.75;;;20.00;100.00
37368;BME280;23240;43.210;27.910;2022-11-20T14:01:06;100538.59;;;19.91;100.00
37368;BME280;23240;43.210;27.910;2022-11-20T14:03:34;100545.06;;;19.90;100.00
37368;BME280;23240;43.210;27.910;2022-11-20T14:06:05;100537.31;;;19.87;100.00
37368;BME280;23240;43.210;27.910;2022-11-20T14:08:48;100541.44;;;19.83;100.00